sensor_id;sensor_type;location;lat;lon;timestamp;temperature;humidity
42683;DHT22;28293;50.930;3.464;2023-05-29T00:01:44;13.90;85.30
42683;DHT22;28293;50.930;3.464;2023-05-29T00:04:10;13.90;85.40
42683;DHT22;28293;50.930;3.464;2023-05-29T00:06:37;13.90;85.30
42683;DHT22;28293;50.930;3.464;2023-05-29T00:09:03;13.90;85.50
42683;DHT22;28293;50.930;3.464;2023-05-29T00:11:29;13.80;85.60
42683;DHT22;28293;50.930;3.464;2023-05-29T00:13:55;13.70;85.80
42683;DHT22;28293;50.930;3.464;2023-05-29T00:16:22;13.70;85.70
42683;DHT22;28293;50.930;3.464;2023-05-29T00:18:49;13.70;85.50
42683;DHT22;28293;50.930;3.464;2023-05-29T00:21:15;13.60;85.40
42683;DHT22;28293;50.930;3.464;2023-05-29T00:23:41;13.60;85.20
42683;DHT22;28293;50.930;3.464;2023-05-29T00:26:07;13.50;84.90
42683;DHT22;28293;50.930;3.464;2023-05-29T00:28:34;13.50;84.70
42683;DHT22;28293;50.930;3.464;2023-05-29T00:31:00;13.50;84.60
42683;DHT22;28293;50.930;3.464;2023-05-29T00:33:26;13.50;84.40
42683;DHT22;28293;50.930;3.464;2023-05-29T00:35:52;13.50;84.20
42683;DHT22;28293;50.930;3.464;2023-05-29T00:38:18;13.50;84.40
42683;DHT22;28293;50.930;3.464;2023-05-29T00:40:43;13.40;84.40
42683;DHT22;28293;50.930;3.464;2023-05-29T00:43:09;13.40;84.20
42683;DHT22;28293;50.930;3.464;2023-05-29T00:45:35;13.40;84.20
42683;DHT22;28293;50.930;3.464;2023-05-29T00:48:05;13.30;84.50
42683;DHT22;28293;50.930;3.464;2023-05-29T00:50:32;13.30;84.60
42683;DHT22;28293;50.930;3.464;2023-05-29T00:53:00;13.30;84.50
42683;DHT22;28293;50.930;3.464;2023-05-29T00:55:28;13.30;84.60
42683;DHT22;28293;50.930;3.464;2023-05-29T00:57:54;13.20;84.60
42683;DHT22;28293;50.930;3.464;2023-05-29T01:00:20;13.30;84.70
42683;DHT22;28293;50.930;3.464;2023-05-29T01:02:46;13.20;84.60
42683;DHT22;28293;50.930;3.464;2023-05-29T01:05:13;13.20;84.90
42683;DHT22;28293;50.930;3.464;2023-05-29T01:07:43;13.20;84.70
42683;DHT22;28293;50.930;3.464;2023-05-29T01:10:10;13.10;84.60
42683;DHT22;28293;50.930;3.464;2023-05-29T01:21:11;13.00;85.00
42683;DHT22;28293;50.930;3.464;2023-05-29T01:26:54;12.90;85.10
42683;DHT22;28293;50.930;3.464;2023-05-29T01:29:32;12.90;85.00
42683;DHT22;28293;50.930;3.464;2023-05-29T01:31:59;12.90;85.00
42683;DHT22;28293;50.930;3.464;2023-05-29T01:34:27;12.90;84.90
42683;DHT22;28293;50.930;3.464;2023-05-29T01:36:53;12.80;84.80
42683;DHT22;28293;50.930;3.464;2023-05-29T01:39:19;12.80;84.70
42683;DHT22;28293;50.930;3.464;2023-05-29T01:41:47;12.70;84.70
42683;DHT22;28293;50.930;3.464;2023-05-29T01:44:13;12.70;84.50
42683;DHT22;28293;50.930;3.464;2023-05-29T01:46:41;12.70;84.30
42683;DHT22;28293;50.930;3.464;2023-05-29T01:49:08;12.70;83.90
42683;DHT22;28293;50.930;3.464;2023-05-29T01:51:34;12.70;83.90
42683;DHT22;28293;50.930;3.464;2023-05-29T01:54:01;12.60;83.60
42683;DHT22;28293;50.930;3.464;2023-05-29T01:56:27;12.60;83.50
42683;DHT22;28293;50.930;3.464;2023-05-29T01:58:55;12.60;83.20
42683;DHT22;28293;50.930;3.464;2023-05-29T02:01:24;12.60;83.20
42683;DHT22;28293;50.930;3.464;2023-05-29T02:03:50;12.60;83.00
42683;DHT22;28293;50.930;3.464;2023-05-29T02:06:19;12.60;82.90
42683;DHT22;28293;50.930;3.464;2023-05-29T02:08:45;12.60;82.40
42683;DHT22;28293;50.930;3.464;2023-05-29T02:11:11;12.60;82.40
42683;DHT22;28293;50.930;3.464;2023-05-29T02:13:37;12.50;82.50
42683;DHT22;28293;50.930;3.464;2023-05-29T02:16:03;12.50;82.30
42683;DHT22;28293;50.930;3.464;2023-05-29T02:18:29;12.50;82.10
42683;DHT22;28293;50.930;3.464;2023-05-29T02:20:54;12.50;81.90
42683;DHT22;28293;50.930;3.464;2023-05-29T02:23:20;12.50;81.70
42683;DHT22;28293;50.930;3.464;2023-05-29T02:25:46;12.50;81.40
42683;DHT22;28293;50.930;3.464;2023-05-29T02:28:12;12.40;80.90
42683;DHT22;28293;50.930;3.464;2023-05-29T02:30:38;12.40;80.60
42683;DHT22;28293;50.930;3.464;2023-05-29T02:33:04;12.40;80.50
42683;DHT22;28293;50.930;3.464;2023-05-29T02:35:30;12.40;80.20
42683;DHT22;28293;50.930;3.464;2023-05-29T02:37:55;12.40;80.00
42683;DHT22;28293;50.930;3.464;2023-05-29T02:40:21;12.30;80.00
42683;DHT22;28293;50.930;3.464;2023-05-29T02:42:47;12.30;80.00
42683;DHT22;28293;50.930;3.464;2023-05-29T02:45:13;12.20;80.00
42683;DHT22;28293;50.930;3.464;2023-05-29T02:47:38;12.20;80.10
42683;DHT22;28293;50.930;3.464;2023-05-29T02:50:05;12.20;80.20
42683;DHT22;28293;50.930;3.464;2023-05-29T02:52:34;12.10;80.20
42683;DHT22;28293;50.930;3.464;2023-05-29T02:55:00;12.20;80.50
42683;DHT22;28293;50.930;3.464;2023-05-29T02:57:26;12.10;80.40
42683;DHT22;28293;50.930;3.464;2023-05-29T02:59:51;12.10;80.40
42683;DHT22;28293;50.930;3.464;2023-05-29T03:02:18;12.10;80.60
42683;DHT22;28293;50.930;3.464;2023-05-29T03:04:47;12.10;80.60
42683;DHT22;28293;50.930;3.464;2023-05-29T03:07:15;12.10;80.60
42683;DHT22;28293;50.930;3.464;2023-05-29T03:09:41;12.10;80.70
42683;DHT22;28293;50.930;3.464;2023-05-29T03:12:07;12.00;80.60
42683;DHT22;28293;50.930;3.464;2023-05-29T03:14:33;12.00;80.50
42683;DHT22;28293;50.930;3.464;2023-05-29T03:17:07;12.00;80.30
42683;DHT22;28293;50.930;3.464;2023-05-29T03:19:34;11.90;80.10
42683;DHT22;28293;50.930;3.464;2023-05-29T03:22:00;11.90;79.80
42683;DHT22;28293;50.930;3.464;2023-05-29T03:24:25;11.90;79.70
42683;DHT22;28293;50.930;3.464;2023-05-29T03:26:52;11.90;79.40
42683;DHT22;28293;50.930;3.464;2023-05-29T03:29:18;11.90;79.40
42683;DHT22;28293;50.930;3.464;2023-05-29T03:31:44;11.90;79.40
42683;DHT22;28293;50.930;3.464;2023-05-29T03:34:10;11.90;79.30
42683;DHT22;28293;50.930;3.464;2023-05-29T03:36:35;11.80;78.90
42683;DHT22;28293;50.930;3.464;2023-05-29T03:39:04;11.80;78.90
42683;DHT22;28293;50.930;3.464;2023-05-29T03:41:29;11.80;78.80
42683;DHT22;28293;50.930;3.464;2023-05-29T03:43:55;11.80;78.50
42683;DHT22;28293;50.930;3.464;2023-05-29T03:46:21;11.80;78.30
42683;DHT22;28293;50.930;3.464;2023-05-29T03:48:47;11.80;78.10
42683;DHT22;28293;50.930;3.464;2023-05-29T03:51:12;11.70;77.90
42683;DHT22;28293;50.930;3.464;2023-05-29T03:53:38;11.80;78.00
42683;DHT22;28293;50.930;3.464;2023-05-29T03:56:04;11.80;77.90
42683;DHT22;28293;50.930;3.464;2023-05-29T03:58:29;11.80;77.90
42683;DHT22;28293;50.930;3.464;2023-05-29T04:00:55;11.70;77.90
42683;DHT22;28293;50.930;3.464;2023-05-29T04:03:21;11.70;78.00
42683;DHT22;28293;50.930;3.464;2023-05-29T04:05:47;11.80;78.00
42683;DHT22;28293;50.930;3.464;2023-05-29T04:08:13;11.80;77.80
42683;DHT22;28293;50.930;3.464;2023-05-29T04:10:39;11.70;77.40
42683;DHT22;28293;50.930;3.464;2023-05-29T04:13:05;11.70;77.60
42683;DHT22;28293;50.930;3.464;2023-05-29T04:15:31;11.70;77.40
42683;DHT22;28293;50.930;3.464;2023-05-29T04:17:59;11.80;77.40
42683;DHT22;28293;50.930;3.464;2023-05-29T04:20:24;11.70;77.30
42683;DHT22;28293;50.930;3.464;2023-05-29T04:22:51;11.70;77.10
42683;DHT22;28293;50.930;3.464;2023-05-29T04:25:17;11.70;77.20
42683;DHT22;28293;50.930;3.464;2023-05-29T04:27:43;11.70;77.30
42683;DHT22;28293;50.930;3.464;2023-05-29T04:30:15;11.80;77.30
42683;DHT22;28293;50.930;3.464;2023-05-29T04:32:41;11.80;77.30
42683;DHT22;28293;50.930;3.464;2023-05-29T04:35:08;11.80;77.30
42683;DHT22;28293;50.930;3.464;2023-05-29T04:37:35;11.90;77.20
42683;DHT22;28293;50.930;3.464;2023-05-29T04:40:07;11.80;77.20
42683;DHT22;28293;50.930;3.464;2023-05-29T04:42:37;11.80;77.20
42683;DHT22;28293;50.930;3.464;2023-05-29T04:45:03;11.70;77.40
42683;DHT22;28293;50.930;3.464;2023-05-29T04:47:32;11.80;77.10
42683;DHT22;28293;50.930;3.464;2023-05-29T04:50:01;11.70;77.10
42683;DHT22;28293;50.930;3.464;2023-05-29T04:52:27;11.60;77.50
42683;DHT22;28293;50.930;3.464;2023-05-29T04:54:54;11.60;77.20
42683;DHT22;28293;50.930;3.464;2023-05-29T04:57:20;11.80;77.00
42683;DHT22;28293;50.930;3.464;2023-05-29T04:59:46;11.80;76.70
42683;DHT22;28293;50.930;3.464;2023-05-29T05:02:11;11.80;76.80
42683;DHT22;28293;50.930;3.464;2023-05-29T05:04:37;11.80;76.60
42683;DHT22;28293;50.930;3.464;2023-05-29T05:07:04;11.70;76.90
42683;DHT22;28293;50.930;3.464;2023-05-29T05:09:30;11.70;76.70
42683;DHT22;28293;50.930;3.464;2023-05-29T05:11:56;11.70;76.80
42683;DHT22;28293;50.930;3.464;2023-05-29T05:14:22;11.80;76.80
42683;DHT22;28293;50.930;3.464;2023-05-29T05:16:48;12.10;76.30
42683;DHT22;28293;50.930;3.464;2023-05-29T05:19:13;12.80;74.50
42683;DHT22;28293;50.930;3.464;2023-05-29T05:21:39;13.70;70.90
42683;DHT22;28293;50.930;3.464;2023-05-29T05:24:05;14.30;68.20
42683;DHT22;28293;50.930;3.464;2023-05-29T05:26:31;14.50;67.50
42683;DHT22;28293;50.930;3.464;2023-05-29T05:28:56;14.20;67.90
42683;DHT22;28293;50.930;3.464;2023-05-29T05:31:23;14.80;66.30
42683;DHT22;28293;50.930;3.464;2023-05-29T05:33:49;14.20;67.40
42683;DHT22;28293;50.930;3.464;2023-05-29T05:36:14;14.30;67.50
42683;DHT22;28293;50.930;3.464;2023-05-29T05:38:40;15.00;65.80
42683;DHT22;28293;50.930;3.464;2023-05-29T05:41:06;14.50;66.70
42683;DHT22;28293;50.930;3.464;2023-05-29T05:43:32;14.60;66.50
42683;DHT22;28293;50.930;3.464;2023-05-29T05:45:58;14.70;66.30
42683;DHT22;28293;50.930;3.464;2023-05-29T05:48:23;14.60;66.50
42683;DHT22;28293;50.930;3.464;2023-05-29T05:50:49;14.90;65.60
42683;DHT22;28293;50.930;3.464;2023-05-29T05:53:15;14.60;66.40
42683;DHT22;28293;50.930;3.464;2023-05-29T05:55:42;14.30;67.50
42683;DHT22;28293;50.930;3.464;2023-05-29T05:58:08;13.70;69.00
42683;DHT22;28293;50.930;3.464;2023-05-29T06:00:33;13.50;70.30
42683;DHT22;28293;50.930;3.464;2023-05-29T06:02:59;13.30;71.90
42683;DHT22;28293;50.930;3.464;2023-05-29T06:05:25;13.30;71.30
42683;DHT22;28293;50.930;3.464;2023-05-29T06:07:51;13.30;71.30
42683;DHT22;28293;50.930;3.464;2023-05-29T06:10:17;13.40;71.00
42683;DHT22;28293;50.930;3.464;2023-05-29T06:12:44;13.30;71.00
42683;DHT22;28293;50.930;3.464;2023-05-29T06:15:10;13.20;70.60
42683;DHT22;28293;50.930;3.464;2023-05-29T06:17:36;13.20;69.80
42683;DHT22;28293;50.930;3.464;2023-05-29T06:20:01;13.10;70.00
42683;DHT22;28293;50.930;3.464;2023-05-29T06:22:27;13.20;69.80
42683;DHT22;28293;50.930;3.464;2023-05-29T06:24:53;13.50;69.80
42683;DHT22;28293;50.930;3.464;2023-05-29T06:27:18;13.70;69.10
42683;DHT22;28293;50.930;3.464;2023-05-29T06:29:45;14.00;67.50
42683;DHT22;28293;50.930;3.464;2023-05-29T06:32:10;13.60;68.00
42683;DHT22;28293;50.930;3.464;2023-05-29T06:34:36;13.60;68.90
42683;DHT22;28293;50.930;3.464;2023-05-29T06:37:02;13.60;69.40
42683;DHT22;28293;50.930;3.464;2023-05-29T06:39:28;13.90;69.10
42683;DHT22;28293;50.930;3.464;2023-05-29T06:41:53;13.80;67.80
42683;DHT22;28293;50.930;3.464;2023-05-29T06:44:19;13.80;68.60
42683;DHT22;28293;50.930;3.464;2023-05-29T06:46:45;14.10;68.10
42683;DHT22;28293;50.930;3.464;2023-05-29T06:49:10;14.30;66.70
42683;DHT22;28293;50.930;3.464;2023-05-29T06:51:36;14.10;67.20
42683;DHT22;28293;50.930;3.464;2023-05-29T06:54:02;14.30;66.10
42683;DHT22;28293;50.930;3.464;2023-05-29T06:56:27;14.40;65.90
42683;DHT22;28293;50.930;3.464;2023-05-29T06:58:53;14.30;66.00
42683;DHT22;28293;50.930;3.464;2023-05-29T07:01:19;14.00;66.30
42683;DHT22;28293;50.930;3.464;2023-05-29T07:03:46;14.00;66.40
42683;DHT22;28293;50.930;3.464;2023-05-29T07:06:12;14.20;66.30
42683;DHT22;28293;50.930;3.464;2023-05-29T07:08:37;14.30;66.60
42683;DHT22;28293;50.930;3.464;2023-05-29T07:11:03;14.60;67.00
42683;DHT22;28293;50.930;3.464;2023-05-29T07:13:29;14.60;66.80
42683;DHT22;28293;50.930;3.464;2023-05-29T07:15:54;14.50;65.20
42683;DHT22;28293;50.930;3.464;2023-05-29T07:18:20;14.60;65.70
42683;DHT22;28293;50.930;3.464;2023-05-29T07:20:46;14.70;66.50
42683;DHT22;28293;50.930;3.464;2023-05-29T07:23:11;14.70;67.00
42683;DHT22;28293;50.930;3.464;2023-05-29T07:25:37;14.80;66.50
42683;DHT22;28293;50.930;3.464;2023-05-29T07:28:03;15.10;66.60
42683;DHT22;28293;50.930;3.464;2023-05-29T07:30:28;15.10;65.80
42683;DHT22;28293;50.930;3.464;2023-05-29T07:32:54;14.90;66.60
42683;DHT22;28293;50.930;3.464;2023-05-29T07:35:20;15.10;65.50
42683;DHT22;28293;50.930;3.464;2023-05-29T07:37:45;15.20;64.20
42683;DHT22;28293;50.930;3.464;2023-05-29T07:40:13;15.10;64.50
42683;DHT22;28293;50.930;3.464;2023-05-29T07:42:39;15.20;64.30
42683;DHT22;28293;50.930;3.464;2023-05-29T07:45:05;15.20;64.00
42683;DHT22;28293;50.930;3.464;2023-05-29T07:47:30;15.30;64.20
42683;DHT22;28293;50.930;3.464;2023-05-29T07:49:56;15.30;63.30
42683;DHT22;28293;50.930;3.464;2023-05-29T07:52:22;15.20;63.60
42683;DHT22;28293;50.930;3.464;2023-05-29T07:54:48;15.40;63.40
42683;DHT22;28293;50.930;3.464;2023-05-29T07:57:13;15.30;63.10
42683;DHT22;28293;50.930;3.464;2023-05-29T07:59:42;15.20;63.00
42683;DHT22;28293;50.930;3.464;2023-05-29T08:02:08;15.30;62.80
42683;DHT22;28293;50.930;3.464;2023-05-29T08:04:34;15.50;62.50
42683;DHT22;28293;50.930;3.464;2023-05-29T08:07:01;15.60;63.50
42683;DHT22;28293;50.930;3.464;2023-05-29T08:09:29;15.60;62.20
42683;DHT22;28293;50.930;3.464;2023-05-29T08:11:54;15.60;62.10
42683;DHT22;28293;50.930;3.464;2023-05-29T08:14:20;15.80;62.30
42683;DHT22;28293;50.930;3.464;2023-05-29T08:16:46;16.00;62.10
42683;DHT22;28293;50.930;3.464;2023-05-29T08:19:12;16.30;61.70
42683;DHT22;28293;50.930;3.464;2023-05-29T08:21:37;16.60;60.90
42683;DHT22;28293;50.930;3.464;2023-05-29T08:24:04;16.30;60.40
42683;DHT22;28293;50.930;3.464;2023-05-29T08:26:32;16.10;60.90
42683;DHT22;28293;50.930;3.464;2023-05-29T08:28:58;16.10;60.30
42683;DHT22;28293;50.930;3.464;2023-05-29T08:31:24;16.10;60.40
42683;DHT22;28293;50.930;3.464;2023-05-29T08:33:53;16.20;60.10
42683;DHT22;28293;50.930;3.464;2023-05-29T08:36:19;16.20;59.30
42683;DHT22;28293;50.930;3.464;2023-05-29T08:38:48;16.30;59.50
42683;DHT22;28293;50.930;3.464;2023-05-29T08:41:23;16.40;58.70
42683;DHT22;28293;50.930;3.464;2023-05-29T08:43:52;16.50;58.40
42683;DHT22;28293;50.930;3.464;2023-05-29T08:46:18;16.40;58.60
42683;DHT22;28293;50.930;3.464;2023-05-29T08:48:48;16.60;59.60
42683;DHT22;28293;50.930;3.464;2023-05-29T08:51:19;16.70;58.10
42683;DHT22;28293;50.930;3.464;2023-05-29T08:53:46;16.70;58.90
42683;DHT22;28293;50.930;3.464;2023-05-29T08:56:12;16.50;58.80
42683;DHT22;28293;50.930;3.464;2023-05-29T08:58:38;16.60;57.70
42683;DHT22;28293;50.930;3.464;2023-05-29T09:01:05;16.70;58.10
42683;DHT22;28293;50.930;3.464;2023-05-29T09:03:30;16.70;58.50
42683;DHT22;28293;50.930;3.464;2023-05-29T09:05:59;16.80;56.90
42683;DHT22;28293;50.930;3.464;2023-05-29T09:08:29;16.60;57.60
42683;DHT22;28293;50.930;3.464;2023-05-29T09:10:57;16.60;57.30
42683;DHT22;28293;50.930;3.464;2023-05-29T09:13:23;16.70;58.00
42683;DHT22;28293;50.930;3.464;2023-05-29T09:15:49;16.60;58.10
42683;DHT22;28293;50.930;3.464;2023-05-29T09:18:17;16.60;57.30
42683;DHT22;28293;50.930;3.464;2023-05-29T09:20:43;16.70;56.80
42683;DHT22;28293;50.930;3.464;2023-05-29T09:23:10;16.70;57.10
42683;DHT22;28293;50.930;3.464;2023-05-29T09:25:42;16.80;57.50
42683;DHT22;28293;50.930;3.464;2023-05-29T09:28:10;17.00;57.30
42683;DHT22;28293;50.930;3.464;2023-05-29T09:30:41;17.10;56.70
42683;DHT22;28293;50.930;3.464;2023-05-29T09:33:11;17.40;56.60
42683;DHT22;28293;50.930;3.464;2023-05-29T09:35:43;17.10;56.70
42683;DHT22;28293;50.930;3.464;2023-05-29T09:38:15;17.40;57.60
42683;DHT22;28293;50.930;3.464;2023-05-29T09:40:44;17.30;56.70
42683;DHT22;28293;50.930;3.464;2023-05-29T09:43:17;17.50;56.50
42683;DHT22;28293;50.930;3.464;2023-05-29T09:45:47;17.30;56.20
42683;DHT22;28293;50.930;3.464;2023-05-29T09:48:16;17.20;57.00
42683;DHT22;28293;50.930;3.464;2023-05-29T09:50:43;17.40;56.90
42683;DHT22;28293;50.930;3.464;2023-05-29T09:53:23;17.40;56.10
42683;DHT22;28293;50.930;3.464;2023-05-29T09:55:54;17.60;56.90
42683;DHT22;28293;50.930;3.464;2023-05-29T09:58:23;17.40;56.90
42683;DHT22;28293;50.930;3.464;2023-05-29T10:00:50;17.40;57.00
42683;DHT22;28293;50.930;3.464;2023-05-29T10:03:17;17.60;56.90
42683;DHT22;28293;50.930;3.464;2023-05-29T10:05:47;17.70;55.70
42683;DHT22;28293;50.930;3.464;2023-05-29T10:08:15;17.90;55.60
42683;DHT22;28293;50.930;3.464;2023-05-29T10:10:59;18.10;54.80
42683;DHT22;28293;50.930;3.464;2023-05-29T10:13:28;17.80;55.60
42683;DHT22;28293;50.930;3.464;2023-05-29T10:15:58;17.70;56.30
42683;DHT22;28293;50.930;3.464;2023-05-29T10:18:27;18.20;54.70
42683;DHT22;28293;50.930;3.464;2023-05-29T10:20:56;18.60;53.60
42683;DHT22;28293;50.930;3.464;2023-05-29T10:23:25;18.70;53.90
42683;DHT22;28293;50.930;3.464;2023-05-29T10:25:58;18.60;52.70
42683;DHT22;28293;50.930;3.464;2023-05-29T10:28:30;18.80;52.80
42683;DHT22;28293;50.930;3.464;2023-05-29T10:31:09;18.50;53.70
42683;DHT22;28293;50.930;3.464;2023-05-29T10:36:36;18.40;53.20
42683;DHT22;28293;50.930;3.464;2023-05-29T10:39:03;18.20;54.00
42683;DHT22;28293;50.930;3.464;2023-05-29T10:41:30;18.20;53.60
42683;DHT22;28293;50.930;3.464;2023-05-29T10:43:59;18.10;55.10
42683;DHT22;28293;50.930;3.464;2023-05-29T10:49:18;18.30;55.00
42683;DHT22;28293;50.930;3.464;2023-05-29T10:51:44;18.30;53.70
42683;DHT22;28293;50.930;3.464;2023-05-29T10:54:10;18.30;55.90
42683;DHT22;28293;50.930;3.464;2023-05-29T10:56:37;18.50;52.80
42683;DHT22;28293;50.930;3.464;2023-05-29T10:59:02;18.30;54.50
42683;DHT22;28293;50.930;3.464;2023-05-29T11:01:30;18.50;53.20
42683;DHT22;28293;50.930;3.464;2023-05-29T11:06:43;18.90;51.60
42683;DHT22;28293;50.930;3.464;2023-05-29T11:09:33;18.50;54.10
42683;DHT22;28293;50.930;3.464;2023-05-29T11:12:13;18.80;51.80
42683;DHT22;28293;50.930;3.464;2023-05-29T11:14:46;18.60;52.20
42683;DHT22;28293;50.930;3.464;2023-05-29T11:20:04;19.40;52.40
42683;DHT22;28293;50.930;3.464;2023-05-29T11:25:15;19.00;51.20
42683;DHT22;28293;50.930;3.464;2023-05-29T11:27:44;18.70;53.00
42683;DHT22;28293;50.930;3.464;2023-05-29T11:30:11;18.80;51.50
42683;DHT22;28293;50.930;3.464;2023-05-29T11:32:38;19.10;52.30
42683;DHT22;28293;50.930;3.464;2023-05-29T11:35:08;19.20;50.70
42683;DHT22;28293;50.930;3.464;2023-05-29T11:37:42;19.00;51.70
42683;DHT22;28293;50.930;3.464;2023-05-29T11:40:10;19.10;51.40
42683;DHT22;28293;50.930;3.464;2023-05-29T11:42:44;19.10;51.90
42683;DHT22;28293;50.930;3.464;2023-05-29T11:47:56;19.20;51.40
42683;DHT22;28293;50.930;3.464;2023-05-29T11:50:27;19.50;51.90
42683;DHT22;28293;50.930;3.464;2023-05-29T11:52:53;19.60;50.60
42683;DHT22;28293;50.930;3.464;2023-05-29T11:55:20;19.70;51.30
42683;DHT22;28293;50.930;3.464;2023-05-29T11:57:50;19.90;51.10
42683;DHT22;28293;50.930;3.464;2023-05-29T12:00:17;19.80;51.00
42683;DHT22;28293;50.930;3.464;2023-05-29T12:02:44;19.80;49.70
42683;DHT22;28293;50.930;3.464;2023-05-29T12:05:13;19.70;49.90
42683;DHT22;28293;50.930;3.464;2023-05-29T12:07:48;19.70;50.50
42683;DHT22;28293;50.930;3.464;2023-05-29T12:10:16;19.70;49.20
42683;DHT22;28293;50.930;3.464;2023-05-29T12:12:42;19.70;50.20
42683;DHT22;28293;50.930;3.464;2023-05-29T12:15:09;19.50;50.20
42683;DHT22;28293;50.930;3.464;2023-05-29T12:17:35;19.90;51.70
42683;DHT22;28293;50.930;3.464;2023-05-29T12:20:05;19.90;49.40
42683;DHT22;28293;50.930;3.464;2023-05-29T12:22:36;19.60;50.30
42683;DHT22;28293;50.930;3.464;2023-05-29T12:25:10;19.60;50.30
42683;DHT22;28293;50.930;3.464;2023-05-29T12:27:42;20.00;50.60
42683;DHT22;28293;50.930;3.464;2023-05-29T12:30:13;19.90;50.40
42683;DHT22;28293;50.930;3.464;2023-05-29T12:32:44;19.80;50.00
42683;DHT22;28293;50.930;3.464;2023-05-29T12:35:20;20.00;50.20
42683;DHT22;28293;50.930;3.464;2023-05-29T12:38:05;20.00;49.90
42683;DHT22;28293;50.930;3.464;2023-05-29T12:40:33;20.00;49.10
42683;DHT22;28293;50.930;3.464;2023-05-29T12:43:02;19.70;50.40
42683;DHT22;28293;50.930;3.464;2023-05-29T12:45:32;19.90;50.60
42683;DHT22;28293;50.930;3.464;2023-05-29T12:48:03;19.80;50.30
42683;DHT22;28293;50.930;3.464;2023-05-29T12:50:39;19.80;50.10
42683;DHT22;28293;50.930;3.464;2023-05-29T12:53:12;19.90;51.00
42683;DHT22;28293;50.930;3.464;2023-05-29T12:55:41;20.00;51.20
42683;DHT22;28293;50.930;3.464;2023-05-29T12:58:14;20.40;50.50
42683;DHT22;28293;50.930;3.464;2023-05-29T13:00:42;20.10;50.20
42683;DHT22;28293;50.930;3.464;2023-05-29T13:03:08;20.50;50.00
42683;DHT22;28293;50.930;3.464;2023-05-29T13:05:34;20.60;50.50
42683;DHT22;28293;50.930;3.464;2023-05-29T13:08:00;20.80;49.90
42683;DHT22;28293;50.930;3.464;2023-05-29T13:10:27;20.40;49.80
42683;DHT22;28293;50.930;3.464;2023-05-29T13:12:54;20.20;50.80
42683;DHT22;28293;50.930;3.464;2023-05-29T13:15:23;20.10;50.80
42683;DHT22;28293;50.930;3.464;2023-05-29T13:17:49;19.70;50.60
42683;DHT22;28293;50.930;3.464;2023-05-29T13:20:15;19.80;50.70
42683;DHT22;28293;50.930;3.464;2023-05-29T13:22:43;19.80;50.30
42683;DHT22;28293;50.930;3.464;2023-05-29T13:25:11;19.90;50.10
42683;DHT22;28293;50.930;3.464;2023-05-29T13:27:39;20.10;49.50
42683;DHT22;28293;50.930;3.464;2023-05-29T13:30:06;20.10;48.90
42683;DHT22;28293;50.930;3.464;2023-05-29T13:32:32;20.10;48.70
42683;DHT22;28293;50.930;3.464;2023-05-29T13:34:58;20.10;48.60
42683;DHT22;28293;50.930;3.464;2023-05-29T13:37:24;20.20;48.30
42683;DHT22;28293;50.930;3.464;2023-05-29T13:39:50;20.30;48.70
42683;DHT22;28293;50.930;3.464;2023-05-29T13:42:18;20.60;47.60
42683;DHT22;28293;50.930;3.464;2023-05-29T13:44:44;20.70;47.10
42683;DHT22;28293;50.930;3.464;2023-05-29T13:47:10;20.00;48.60
42683;DHT22;28293;50.930;3.464;2023-05-29T13:49:35;20.10;47.80
42683;DHT22;28293;50.930;3.464;2023-05-29T13:52:02;20.20;47.50
42683;DHT22;28293;50.930;3.464;2023-05-29T13:54:28;20.10;48.10
42683;DHT22;28293;50.930;3.464;2023-05-29T13:56:57;19.90;48.30
42683;DHT22;28293;50.930;3.464;2023-05-29T13:59:23;20.00;48.60
42683;DHT22;28293;50.930;3.464;2023-05-29T14:01:50;20.20;46.80
42683;DHT22;28293;50.930;3.464;2023-05-29T14:04:15;20.10;46.50
42683;DHT22;28293;50.930;3.464;2023-05-29T14:06:41;20.30;46.20
42683;DHT22;28293;50.930;3.464;2023-05-29T14:09:07;20.40;44.80
42683;DHT22;28293;50.930;3.464;2023-05-29T14:11:36;20.30;45.10
42683;DHT22;28293;50.930;3.464;2023-05-29T14:14:03;20.10;44.60
42683;DHT22;28293;50.930;3.464;2023-05-29T14:16:29;19.60;45.50
42683;DHT22;28293;50.930;3.464;2023-05-29T14:18:55;20.10;45.40
42683;DHT22;28293;50.930;3.464;2023-05-29T14:21:21;19.80;45.30
42683;DHT22;28293;50.930;3.464;2023-05-29T14:23:47;19.80;44.40
42683;DHT22;28293;50.930;3.464;2023-05-29T14:26:12;20.10;43.70
42683;DHT22;28293;50.930;3.464;2023-05-29T14:28:38;20.40;44.10
42683;DHT22;28293;50.930;3.464;2023-05-29T14:31:07;20.40;44.00
42683;DHT22;28293;50.930;3.464;2023-05-29T14:33:32;20.30;44.20
42683;DHT22;28293;50.930;3.464;2023-05-29T14:35:58;20.30;44.00
42683;DHT22;28293;50.930;3.464;2023-05-29T14:38:24;20.30;43.80
42683;DHT22;28293;50.930;3.464;2023-05-29T14:40:51;20.20;43.30
42683;DHT22;28293;50.930;3.464;2023-05-29T14:43:17;20.60;43.80
42683;DHT22;28293;50.930;3.464;2023-05-29T14:45:43;20.10;43.30
42683;DHT22;28293;50.930;3.464;2023-05-29T14:48:08;19.90;42.50
42683;DHT22;28293;50.930;3.464;2023-05-29T14:50:36;19.70;41.90
42683;DHT22;28293;50.930;3.464;2023-05-29T14:53:02;19.70;42.80
42683;DHT22;28293;50.930;3.464;2023-05-29T14:55:28;19.40;44.00
42683;DHT22;28293;50.930;3.464;2023-05-29T14:57:53;19.60;44.40
42683;DHT22;28293;50.930;3.464;2023-05-29T15:00:19;20.00;43.20
42683;DHT22;28293;50.930;3.464;2023-05-29T15:02:45;20.00;43.70
42683;DHT22;28293;50.930;3.464;2023-05-29T15:05:10;19.80;44.10
42683;DHT22;28293;50.930;3.464;2023-05-29T15:07:36;20.00;42.60
42683;DHT22;28293;50.930;3.464;2023-05-29T15:10:03;20.20;42.30
42683;DHT22;28293;50.930;3.464;2023-05-29T15:12:29;20.20;43.20
42683;DHT22;28293;50.930;3.464;2023-05-29T15:14:55;20.40;42.70
42683;DHT22;28293;50.930;3.464;2023-05-29T15:17:21;20.20;42.30
42683;DHT22;28293;50.930;3.464;2023-05-29T15:19:46;20.30;43.80
42683;DHT22;28293;50.930;3.464;2023-05-29T15:22:12;20.30;43.30
42683;DHT22;28293;50.930;3.464;2023-05-29T15:24:38;20.30;43.70
42683;DHT22;28293;50.930;3.464;2023-05-29T15:27:04;20.30;43.40
42683;DHT22;28293;50.930;3.464;2023-05-29T15:29:34;19.90;43.70
42683;DHT22;28293;50.930;3.464;2023-05-29T15:32:01;19.60;44.40
42683;DHT22;28293;50.930;3.464;2023-05-29T15:34:27;19.60;45.00
42683;DHT22;28293;50.930;3.464;2023-05-29T15:36:53;19.60;44.40
42683;DHT22;28293;50.930;3.464;2023-05-29T15:39:19;19.50;44.80
42683;DHT22;28293;50.930;3.464;2023-05-29T15:41:44;19.60;45.60
42683;DHT22;28293;50.930;3.464;2023-05-29T15:44:10;19.80;45.10
42683;DHT22;28293;50.930;3.464;2023-05-29T15:46:36;19.50;46.00
42683;DHT22;28293;50.930;3.464;2023-05-29T15:49:01;19.40;45.80
42683;DHT22;28293;50.930;3.464;2023-05-29T15:51:27;19.40;46.90
42683;DHT22;28293;50.930;3.464;2023-05-29T15:53:53;19.30;45.40
42683;DHT22;28293;50.930;3.464;2023-05-29T15:56:19;19.50;45.80
42683;DHT22;28293;50.930;3.464;2023-05-29T15:58:50;19.50;46.50